createdAt,value
2022-11-21T00:01:27.600Z,1.10
2022-11-21T00:03:54.745Z,1.10
2022-11-21T00:06:23.867Z,1.10
2022-11-21T00:08:50.934Z,1.10
2022-11-21T00:11:17.967Z,1.00
2022-11-21T00:13:45.385Z,1.00
2022-11-21T00:16:15.084Z,1.00
2022-11-21T00:18:42.506Z,1.00
2022-11-21T00:21:18.228Z,1.00
2022-11-21T00:23:46.269Z,1.00
2022-11-21T00:26:14.748Z,0.90
2022-11-21T00:28:42.135Z,0.90
2022-11-21T00:31:10.230Z,0.90
2022-11-21T00:33:39.325Z,0.90
2022-11-21T00:36:13.083Z,0.90
2022-11-21T00:38:40.033Z,0.80
2022-11-21T00:41:07.109Z,0.90
2022-11-21T00:43:34.228Z,0.80
2022-11-21T00:46:03.238Z,0.80
2022-11-21T00:48:34.682Z,0.80
2022-11-21T00:51:02.201Z,0.80
2022-11-21T00:53:29.720Z,0.80
2022-11-21T00:55:56.851Z,0.80
2022-11-21T00:58:23.821Z,0.80
2022-11-21T01:00:51.125Z,0.80
2022-11-21T01:03:18.449Z,0.80
2022-11-21T01:05:45.556Z,0.80
2022-11-21T01:08:12.411Z,0.80
2022-11-21T01:10:39.392Z,0.70
2022-11-21T01:13:06.481Z,0.80
2022-11-21T01:15:34.807Z,0.80
2022-11-21T01:18:02.837Z,0.80
2022-11-21T01:20:29.855Z,0.80
2022-11-21T01:22:56.912Z,0.80
2022-11-21T01:25:24.009Z,0.80
2022-11-21T01:27:51.210Z,0.80
2022-11-21T01:30:18.785Z,0.80
2022-11-21T01:32:50.107Z,0.80
2022-11-21T01:35:18.112Z,0.80
2022-11-21T01:37:48.609Z,0.80
2022-11-21T01:40:16.557Z,0.80
2022-11-21T01:43:02.716Z,0.80
2022-11-21T01:45:51.339Z,0.80
2022-11-21T01:48:18.800Z,0.80
2022-11-21T01:50:46.283Z,0.80
2022-11-21T01:53:13.432Z,0.80
2022-11-21T01:55:40.421Z,0.80
2022-11-21T01:58:07.478Z,0.80
2022-11-21T02:00:39.934Z,0.80
2022-11-21T02:03:12.634Z,0.70
2022-11-21T02:05:40.657Z,0.70
2022-11-21T02:08:15.197Z,0.70
2022-11-21T02:10:50.235Z,0.70
2022-11-21T02:13:17.467Z,0.70
2022-11-21T02:15:44.685Z,0.70
2022-11-21T02:18:11.817Z,0.70
2022-11-21T02:20:41.375Z,0.70
2022-11-21T02:23:41.944Z,0.70
2022-11-21T02:26:09.276Z,0.80
2022-11-21T02:28:39.473Z,0.70
2022-11-21T02:31:07.000Z,0.70
2022-11-21T02:33:34.255Z,0.80
2022-11-21T02:36:02.781Z,0.80
2022-11-21T02:38:37.922Z,0.70
2022-11-21T02:41:17.319Z,0.80
2022-11-21T02:43:54.797Z,0.80
2022-11-21T02:46:21.866Z,0.80
2022-11-21T02:48:49.043Z,0.80
2022-11-21T02:51:15.977Z,0.80
2022-11-21T02:53:43.125Z,0.80
2022-11-21T02:56:10.074Z,0.80
2022-11-21T02:58:37.085Z,0.80
2022-11-21T03:01:04.008Z,0.80
2022-11-21T03:03:31.196Z,0.80
2022-11-21T03:05:58.043Z,0.70
2022-11-21T03:08:25.024Z,0.70
2022-11-21T03:10:52.025Z,0.70
2022-11-21T03:13:19.034Z,0.70
2022-11-21T03:15:45.953Z,0.70
2022-11-21T03:18:12.826Z,0.70
2022-11-21T03:20:39.813Z,0.70
2022-11-21T03:23:06.785Z,0.70
2022-11-21T03:25:33.781Z,0.70
2022-11-21T03:28:00.782Z,0.70
2022-11-21T03:30:28.144Z,0.70
2022-11-21T03:33:00.889Z,0.60
2022-11-21T03:35:27.919Z,0.60
2022-11-21T03:37:57.336Z,0.60
2022-11-21T03:40:24.833Z,0.60
2022-11-21T03:42:51.753Z,0.70
2022-11-21T03:45:18.684Z,0.70
2022-11-21T03:47:45.634Z,0.70
2022-11-21T03:50:15.400Z,0.70
2022-11-21T03:52:42.295Z,0.70
2022-11-21T03:55:09.603Z,0.80
2022-11-21T03:57:36.552Z,0.80
2022-11-21T04:00:03.906Z,0.80
2022-11-21T04:02:30.843Z,0.80
2022-11-21T04:04:57.708Z,0.80
2022-11-21T04:07:28.758Z,0.70
2022-11-21T04:09:57.027Z,0.70
2022-11-21T04:12:24.102Z,0.80
2022-11-21T04:14:51.208Z,0.70
2022-11-21T04:17:21.068Z,0.70
2022-11-21T04:19:49.891Z,0.70
2022-11-21T04:22:16.888Z,0.80
2022-11-21T04:24:44.976Z,0.80
2022-11-21T04:27:11.943Z,0.80
2022-11-21T04:29:43.598Z,0.80
2022-11-21T04:32:13.552Z,0.80
2022-11-21T04:34:41.231Z,0.80
2022-11-21T04:37:11.594Z,0.80
2022-11-21T04:39:45.155Z,0.80
2022-11-21T04:42:12.430Z,0.80
2022-11-21T04:44:39.384Z,0.80
2022-11-21T04:47:09.323Z,0.80
2022-11-21T04:49:40.326Z,0.90
2022-11-21T04:52:08.847Z,0.90
2022-11-21T04:54:35.698Z,0.90
2022-11-21T04:57:05.474Z,0.80
2022-11-21T04:59:32.970Z,0.80
2022-11-21T05:01:59.839Z,0.80
2022-11-21T05:04:27.746Z,0.80
2022-11-21T05:06:57.639Z,0.90
2022-11-21T05:09:24.553Z,0.90
2022-11-21T05:12:10.023Z,0.90
2022-11-21T05:14:39.000Z,0.90
2022-11-21T05:17:06.023Z,0.90
2022-11-21T05:19:33.235Z,0.90
2022-11-21T05:22:00.197Z,0.90
2022-11-21T05:24:27.517Z,0.90
2022-11-21T05:26:55.357Z,0.90
2022-11-21T05:29:27.739Z,0.90
2022-11-21T05:31:57.398Z,0.90
2022-11-21T05:34:24.364Z,0.90
2022-11-21T05:36:57.376Z,0.90
2022-11-21T05:39:24.784Z,0.90
2022-11-21T05:41:51.745Z,0.80
2022-11-21T05:44:19.301Z,0.90
2022-11-21T05:46:46.649Z,0.90
2022-11-21T05:49:13.767Z,0.90
2022-11-21T05:51:40.869Z,0.90
2022-11-21T05:54:07.838Z,0.90
2022-11-21T05:56:35.195Z,0.90
2022-11-21T05:59:02.190Z,0.90
2022-11-21T06:01:47.334Z,0.90
2022-11-21T06:04:14.347Z,1.00
2022-11-21T06:06:42.365Z,1.00
2022-11-21T06:09:09.387Z,1.00
2022-11-21T06:11:36.320Z,1.00
2022-11-21T06:14:03.402Z,1.00
2022-11-21T06:16:30.629Z,0.90
2022-11-21T06:18:58.833Z,0.90
2022-11-21T06:21:28.927Z,0.90
2022-11-21T06:23:57.906Z,0.80
2022-11-21T06:26:26.919Z,0.80
2022-11-21T06:28:54.999Z,0.90
2022-11-21T06:31:25.130Z,0.80
2022-11-21T06:33:54.478Z,0.90
2022-11-21T06:36:21.582Z,0.90
2022-11-21T06:39:01.917Z,0.90
2022-11-21T06:41:31.032Z,0.90
2022-11-21T06:44:03.430Z,0.90
2022-11-21T06:46:30.682Z,0.90
2022-11-21T06:48:57.843Z,0.90
2022-11-21T06:51:26.185Z,0.90
2022-11-21T06:53:59.146Z,0.90
2022-11-21T06:56:28.035Z,1.00
2022-11-21T07:02:32.126Z,1.00
2022-11-21T07:05:01.465Z,1.00
2022-11-21T07:07:28.511Z,1.00
2022-11-21T07:09:55.534Z,1.00
2022-11-21T07:12:41.142Z,1.00
2022-11-21T07:15:09.075Z,1.00
2022-11-21T07:17:36.150Z,1.00
2022-11-21T07:20:03.268Z,1.10
2022-11-21T07:23:18.085Z,1.00
2022-11-21T07:25:45.162Z,1.10
2022-11-21T07:28:12.310Z,1.10
2022-11-21T07:30:39.873Z,1.10
2022-11-21T07:33:07.798Z,1.20
2022-11-21T07:35:35.886Z,1.20
2022-11-21T07:38:04.559Z,1.30
2022-11-21T07:40:34.830Z,1.30
2022-11-21T07:43:09.559Z,1.30
2022-11-21T07:45:38.324Z,1.30
2022-11-21T07:48:07.799Z,1.30
2022-11-21T07:50:35.102Z,1.40
2022-11-21T07:53:06.650Z,1.40
2022-11-21T07:55:39.080Z,1.50
2022-11-21T07:58:11.755Z,1.50
2022-11-21T08:00:40.876Z,1.50
2022-11-21T08:03:08.038Z,1.50
2022-11-21T08:05:52.975Z,1.50
2022-11-21T08:08:20.013Z,1.60
2022-11-21T08:10:47.133Z,1.60
2022-11-21T08:13:14.658Z,1.60
2022-11-21T08:15:41.831Z,1.60
2022-11-21T08:18:13.616Z,1.60
2022-11-21T08:20:41.141Z,1.70
2022-11-21T08:23:08.180Z,1.70
2022-11-21T08:25:36.868Z,1.80
2022-11-21T08:28:04.855Z,1.80
2022-11-21T08:30:33.097Z,1.90
2022-11-21T08:33:01.320Z,1.90
2022-11-21T08:35:31.358Z,1.90
2022-11-21T08:38:00.049Z,1.90
2022-11-21T08:40:28.628Z,1.90
2022-11-21T08:43:02.533Z,1.90
2022-11-21T08:45:29.993Z,1.90
2022-11-21T08:47:57.251Z,1.90
2022-11-21T08:50:24.895Z,1.90
2022-11-21T08:52:52.272Z,2.00
2022-11-21T08:55:19.519Z,2.00
2022-11-21T08:57:46.461Z,2.00
2022-11-21T09:00:14.546Z,2.00
2022-11-21T09:02:41.794Z,2.00
2022-11-21T09:05:09.757Z,2.00
2022-11-21T09:07:37.230Z,2.00
2022-11-21T09:10:04.976Z,2.10
2022-11-21T09:12:33.078Z,2.10
2022-11-21T09:15:18.757Z,2.20
2022-11-21T09:18:04.184Z,2.20
2022-11-21T09:20:33.002Z,2.30
2022-11-21T09:23:08.313Z,2.40
2022-11-21T09:25:35.548Z,2.50
2022-11-21T09:28:03.522Z,2.50
2022-11-21T09:30:31.864Z,2.60
2022-11-21T09:33:03.369Z,2.70
2022-11-21T09:35:30.998Z,2.70
2022-11-21T09:37:58.442Z,2.80
2022-11-21T09:40:26.203Z,2.70
2022-11-21T09:43:50.639Z,2.60
2022-11-21T09:46:24.833Z,2.60
2022-11-21T09:49:02.540Z,2.50
2022-11-21T09:51:31.591Z,2.50
2022-11-21T09:54:01.787Z,2.50
2022-11-21T09:56:36.151Z,2.60
2022-11-21T09:59:27.871Z,2.70
2022-11-21T10:01:55.001Z,2.70
2022-11-21T10:04:21.995Z,2.80
2022-11-21T10:07:22.302Z,2.90
2022-11-21T10:10:17.486Z,2.90
2022-11-21T10:13:25.823Z,3.00
2022-11-21T10:15:58.461Z,3.00
2022-11-21T10:19:07.276Z,3.10
2022-11-21T10:22:13.086Z,3.10
2022-11-21T10:25:01.735Z,3.00
2022-11-21T10:28:15.476Z,2.90
2022-11-21T10:30:47.332Z,2.90
2022-11-21T10:33:44.419Z,2.90
2022-11-21T10:36:23.535Z,2.90
2022-11-21T10:38:52.486Z,2.90
2022-11-21T10:41:25.792Z,2.90
2022-11-21T10:44:20.137Z,2.90
2022-11-21T10:47:01.051Z,2.90
2022-11-21T10:49:32.738Z,2.90
2022-11-21T10:52:15.502Z,2.90
2022-11-21T10:55:09.015Z,3.00
2022-11-21T10:57:47.759Z,3.00
2022-11-21T11:00:26.878Z,3.10
2022-11-21T11:03:16.807Z,3.20
2022-11-21T11:05:56.273Z,3.30
2022-11-21T11:08:23.318Z,3.30
2022-11-21T11:11:15.324Z,3.30
2022-11-21T11:14:02.734Z,3.50
2022-11-21T11:16:31.588Z,3.60
2022-11-21T11:19:01.641Z,3.70
2022-11-21T11:21:46.358Z,3.80
2022-11-21T11:24:26.970Z,4.00
2022-11-21T11:27:00.980Z,3.90
2022-11-21T11:29:30.872Z,3.80
2022-11-21T11:32:21.919Z,3.70
2022-11-21T11:35:13.386Z,3.70
2022-11-21T11:38:04.864Z,3.70
2022-11-21T11:40:42.210Z,3.70
2022-11-21T11:44:08.057Z,3.70
2022-11-21T11:47:27.480Z,3.80
2022-11-21T11:50:13.091Z,3.80
2022-11-21T11:53:26.468Z,3.90
2022-11-21T11:55:59.366Z,3.90
2022-11-21T11:58:56.074Z,4.00
2022-11-21T12:02:12.095Z,4.10
2022-11-21T12:04:48.799Z,4.10
2022-11-21T12:10:25.064Z,4.20
2022-11-21T12:13:11.905Z,4.30
2022-11-21T12:15:49.781Z,4.30
2022-11-21T12:18:43.075Z,4.30
2022-11-21T12:21:17.147Z,4.40
2022-11-21T12:23:55.471Z,4.40
2022-11-21T12:27:00.985Z,4.50
2022-11-21T12:30:09.417Z,4.60
2022-11-21T12:33:10.914Z,4.80
2022-11-21T12:36:18.707Z,4.90
2022-11-21T12:39:04.470Z,4.80
2022-11-21T12:41:57.952Z,4.90
2022-11-21T12:45:02.588Z,5.00
2022-11-21T12:48:47.172Z,4.90
2022-11-21T12:52:05.368Z,4.90
2022-11-21T12:55:10.768Z,4.90
2022-11-21T12:58:08.640Z,4.90
2022-11-21T13:01:21.690Z,4.90
2022-11-21T13:04:05.811Z,5.00
2022-11-21T13:06:39.945Z,5.00
2022-11-21T13:09:12.430Z,5.00
2022-11-21T13:12:04.085Z,4.90
2022-11-21T13:15:12.275Z,4.90
2022-11-21T13:17:54.281Z,4.80
2022-11-21T13:20:46.204Z,4.90
2022-11-21T13:23:40.378Z,4.90
2022-11-21T13:26:48.399Z,5.00
2022-11-21T13:29:18.435Z,5.10
2022-11-21T13:31:45.914Z,5.10
2022-11-21T13:34:37.167Z,5.10
2022-11-21T13:37:05.788Z,5.00
2022-11-21T13:39:34.849Z,5.10
2022-11-21T13:42:25.515Z,5.10
2022-11-21T13:44:54.772Z,5.10
2022-11-21T13:47:56.809Z,5.10
2022-11-21T13:50:41.311Z,5.10
2022-11-21T13:53:32.039Z,5.10
2022-11-21T13:56:32.095Z,5.10
2022-11-21T13:59:17.335Z,5.10
2022-11-21T14:02:01.930Z,5.00
2022-11-21T14:04:43.462Z,5.00
2022-11-21T14:07:34.995Z,5.00
2022-11-21T14:10:19.807Z,4.90
2022-11-21T14:12:49.662Z,4.90
2022-11-21T14:15:41.361Z,5.00
2022-11-21T14:18:22.892Z,5.00
2022-11-21T14:20:56.913Z,5.00
2022-11-21T14:23:30.201Z,5.00
2022-11-21T14:26:12.731Z,5.00
2022-11-21T14:28:39.871Z,5.00
2022-11-21T14:31:09.561Z,5.00
2022-11-21T14:33:44.722Z,4.90
2022-11-21T14:36:30.765Z,5.00
2022-11-21T14:41:59.603Z,4.90
2022-11-21T14:44:27.183Z,4.90
2022-11-21T14:47:25.118Z,4.80
2022-11-21T14:49:55.516Z,4.80
2022-11-21T14:52:29.119Z,4.70
2022-11-21T14:57:48.340Z,4.60
2022-11-21T15:03:21.924Z,4.40
2022-11-21T15:06:07.982Z,4.40
2022-11-21T15:11:56.644Z,4.30
2022-11-21T15:14:42.719Z,4.20
2022-11-21T15:17:15.117Z,4.20
2022-11-21T15:19:43.590Z,4.20
2022-11-21T15:22:28.347Z,4.20
2022-11-21T15:25:24.710Z,4.10
2022-11-21T15:28:02.489Z,4.10
2022-11-21T15:30:34.287Z,4.00
2022-11-21T15:33:19.898Z,4.10
2022-11-21T15:35:55.431Z,4.00
2022-11-21T15:38:49.505Z,3.90
2022-11-21T15:41:28.481Z,3.90
2022-11-21T15:44:03.296Z,3.90
2022-11-21T15:46:31.753Z,3.80
2022-11-21T15:49:31.529Z,3.90
2022-11-21T15:52:09.820Z,3.80
2022-11-21T15:54:48.990Z,3.80
2022-11-21T15:57:17.458Z,3.80
2022-11-21T15:59:45.512Z,3.70
2022-11-21T16:02:15.913Z,3.70
2022-11-21T16:04:42.979Z,3.70
2022-11-21T16:07:10.009Z,3.70
2022-11-21T16:09:37.915Z,3.60
2022-11-21T16:12:05.141Z,3.60
2022-11-21T16:14:32.473Z,3.60
2022-11-21T16:16:59.536Z,3.60
2022-11-21T16:19:27.019Z,3.60
2022-11-21T16:21:54.262Z,3.50
2022-11-21T16:24:21.208Z,3.60
2022-11-21T16:26:49.579Z,3.60
2022-11-21T16:29:16.677Z,3.50
2022-11-21T16:31:43.963Z,3.50
2022-11-21T16:34:11.062Z,3.50
2022-11-21T16:36:38.257Z,3.40
2022-11-21T16:39:10.100Z,3.40
2022-11-21T16:41:39.510Z,3.40
2022-11-21T16:44:13.895Z,3.40
2022-11-21T16:46:47.406Z,3.40
2022-11-21T16:49:14.729Z,3.40
2022-11-21T16:51:41.987Z,3.40
2022-11-21T16:54:09.654Z,3.40
2022-11-21T16:56:36.865Z,3.30
2022-11-21T16:59:03.897Z,3.40
2022-11-21T17:01:31.181Z,3.40
2022-11-21T17:03:58.318Z,3.40
2022-11-21T17:06:28.482Z,3.40
2022-11-21T17:08:55.606Z,3.40
2022-11-21T17:11:26.558Z,3.40
2022-11-21T17:13:53.570Z,3.50
2022-11-21T17:16:22.486Z,3.40
2022-11-21T17:18:57.104Z,3.50
2022-11-21T17:21:24.778Z,3.40
2022-11-21T17:23:52.575Z,3.40
2022-11-21T17:26:22.272Z,3.40
2022-11-21T17:29:00.615Z,3.40
2022-11-21T17:31:28.461Z,3.40
2022-11-21T17:34:01.129Z,3.30
2022-11-21T17:36:29.850Z,3.30
2022-11-21T17:38:57.249Z,3.30
2022-11-21T17:41:25.492Z,3.30
2022-11-21T17:43:57.112Z,3.30
2022-11-21T17:46:28.474Z,3.30
2022-11-21T17:48:59.026Z,3.30
2022-11-21T17:51:33.521Z,3.30
2022-11-21T17:54:02.310Z,3.30
2022-11-21T17:56:31.894Z,3.30
2022-11-21T17:58:59.063Z,3.30
2022-11-21T18:01:26.420Z,3.30
2022-11-21T18:03:57.213Z,3.40
2022-11-21T18:06:26.355Z,3.40
2022-11-21T18:08:53.406Z,3.40
2022-11-21T18:11:22.278Z,3.40
2022-11-21T18:13:50.605Z,3.40
2022-11-21T18:16:20.090Z,3.40
2022-11-21T18:18:49.577Z,3.40
2022-11-21T18:21:21.217Z,3.50
2022-11-21T18:23:48.959Z,3.50
2022-11-21T18:26:24.676Z,3.50
2022-11-21T18:29:13.449Z,3.50
2022-11-21T18:31:45.897Z,3.50
2022-11-21T18:34:13.429Z,3.50
2022-11-21T18:36:40.866Z,3.50
2022-11-21T18:39:14.239Z,3.50
2022-11-21T18:41:43.034Z,3.60
2022-11-21T18:44:10.524Z,3.60
2022-11-21T18:46:38.540Z,3.60
2022-11-21T18:49:07.446Z,3.60
2022-11-21T18:51:37.261Z,3.60
2022-11-21T18:54:11.270Z,3.60
2022-11-21T18:56:39.678Z,3.70
2022-11-21T18:59:07.388Z,3.70
2022-11-21T19:01:36.028Z,3.70
2022-11-21T19:04:03.665Z,3.60
2022-11-21T19:06:31.040Z,3.60
2022-11-21T19:08:58.853Z,3.60
2022-11-21T19:11:28.014Z,3.50
2022-11-21T19:13:58.092Z,3.50
2022-11-21T19:16:27.354Z,3.60
2022-11-21T19:21:42.814Z,3.50
2022-11-21T19:24:14.577Z,3.50
2022-11-21T19:26:42.434Z,3.50
2022-11-21T19:29:10.547Z,3.40
2022-11-21T19:31:45.227Z,3.50
2022-11-21T19:34:14.955Z,3.40
2022-11-21T19:36:42.736Z,3.40
2022-11-21T19:39:10.216Z,3.40
2022-11-21T19:41:37.519Z,3.40
2022-11-21T19:44:04.786Z,3.40
2022-11-21T19:46:37.327Z,3.40
2022-11-21T19:49:05.827Z,3.40
2022-11-21T19:51:38.439Z,3.40
2022-11-21T19:54:07.284Z,3.40
2022-11-21T19:56:34.797Z,3.40
2022-11-21T19:59:02.322Z,3.40
2022-11-21T20:01:31.516Z,3.50
2022-11-21T20:04:02.058Z,3.50
2022-11-21T20:06:33.699Z,3.50
2022-11-21T20:09:12.301Z,3.50
2022-11-21T20:11:41.941Z,3.50
2022-11-21T20:14:09.058Z,3.50
2022-11-21T20:16:42.381Z,3.50
2022-11-21T20:19:15.689Z,3.50
2022-11-21T20:21:44.215Z,3.50
2022-11-21T20:24:13.423Z,3.40
2022-11-21T20:26:40.786Z,3.50
2022-11-21T20:29:08.652Z,3.40
2022-11-21T20:31:37.729Z,3.50
2022-11-21T20:34:07.519Z,3.50
2022-11-21T20:36:37.392Z,3.40
2022-11-21T20:39:13.246Z,3.40
2022-11-21T20:41:42.368Z,3.40
2022-11-21T20:44:57.053Z,3.40
2022-11-21T20:47:02.777Z,3.40
2022-11-21T20:49:30.185Z,3.40
2022-11-21T20:54:44.578Z,3.40
2022-11-21T20:57:15.171Z,3.50
2022-11-21T20:59:43.317Z,3.50
2022-11-21T21:02:14.477Z,3.50
2022-11-21T21:04:42.275Z,3.50
2022-11-21T21:07:09.489Z,3.50
2022-11-21T21:09:37.292Z,3.50
2022-11-21T21:12:05.753Z,3.50
2022-11-21T21:14:35.718Z,3.60
2022-11-21T21:17:02.888Z,3.60
2022-11-21T21:19:30.671Z,3.60
2022-11-21T21:21:57.922Z,3.60
2022-11-21T21:24:25.028Z,3.70
2022-11-21T21:26:52.354Z,3.70
2022-11-21T21:29:22.781Z,3.70
2022-11-21T21:31:51.908Z,3.70
2022-11-21T21:34:20.893Z,3.70
2022-11-21T21:36:48.431Z,3.70
2022-11-21T21:39:15.514Z,3.80
2022-11-21T21:41:47.738Z,3.70
2022-11-21T21:44:15.770Z,3.80
2022-11-21T21:46:43.196Z,3.80
2022-11-21T21:49:10.239Z,3.80
2022-11-21T21:51:38.188Z,3.80
2022-11-21T21:54:05.489Z,3.90
2022-11-21T21:56:33.735Z,3.90
2022-11-21T21:59:00.658Z,3.90
2022-11-21T22:01:30.497Z,4.00
2022-11-21T22:04:00.159Z,4.00
2022-11-21T22:06:27.862Z,4.00
2022-11-21T22:08:55.791Z,4.00
2022-11-21T22:11:25.512Z,4.10
2022-11-21T22:13:58.129Z,4.10
2022-11-21T22:16:26.478Z,4.20
2022-11-21T22:18:53.793Z,4.20
2022-11-21T22:21:28.991Z,4.30
2022-11-21T22:26:46.959Z,4.40
2022-11-21T22:29:14.005Z,4.40
2022-11-21T22:31:41.517Z,4.50
2022-11-21T22:34:13.168Z,4.50
2022-11-21T22:36:41.008Z,4.50
2022-11-21T22:39:08.050Z,4.50
2022-11-21T22:41:35.209Z,4.60
2022-11-21T22:44:02.140Z,4.60
2022-11-21T22:46:30.192Z,4.60
2022-11-21T22:48:58.011Z,4.60
2022-11-21T22:51:29.808Z,4.60
2022-11-21T22:53:57.123Z,4.60
2022-11-21T22:56:25.190Z,4.60
2022-11-21T22:58:52.339Z,4.60
2022-11-21T23:01:21.408Z,4.60
2022-11-21T23:03:49.350Z,4.60
2022-11-21T23:06:21.759Z,4.60
2022-11-21T23:08:49.239Z,4.60
2022-11-21T23:11:19.217Z,4.60
2022-11-21T23:13:47.593Z,4.60
2022-11-21T23:16:15.710Z,4.60
2022-11-21T23:18:43.079Z,4.60
2022-11-21T23:21:11.231Z,4.60
2022-11-21T23:23:38.261Z,4.60
2022-11-21T23:26:05.977Z,4.50
2022-11-21T23:28:33.301Z,4.50
2022-11-21T23:31:03.216Z,4.50
2022-11-21T23:33:32.775Z,4.60
2022-11-21T23:35:59.742Z,4.60
2022-11-21T23:38:26.790Z,4.60
2022-11-21T23:40:53.731Z,4.50
2022-11-21T23:43:20.642Z,4.50
2022-11-21T23:45:51.978Z,4.50
2022-11-21T23:48:19.889Z,4.60
2022-11-21T23:50:47.605Z,4.60
2022-11-21T23:53:14.723Z,4.60
2022-11-21T23:55:43.435Z,4.60
2022-11-21T23:58:12.936Z,4.70
